Terminal Aerodrome Forecast
Issued by NWS

Home | Current Version | Previous Version | Text Only | Print | Product List | Glossary On
Versions: 1 2 3 4 5 6 7 8 9 10 11 12
819
FTUS42 TJSJ 102343
TAFJMZ
TAF
TJMZ 102343Z 1100/1124 VRB05KT P6SM SKC
     FM111530 29010KT P6SM SCT025 SCT040
     FM112300 VRB05KT P6SM SKC
      AMD NOT SKED=

USA.gov is the U.S. government's official web portal to all federal, state and local government web resources and services.